This is the latest recevied weather packets stored in our database for station/object HP1COO-13. If no packets are shown the sender has not sent any weather packets the latest 10 day(s).
| Time | Temp. | Humidity | Pressure | Rain* | Wind** | Luminosity | Snow |
|---|---|---|---|---|---|---|---|
| 1777909528 | 32.78° C | 66% | 1009.9 hPa | 0 mm | - | - | - |
| 1777904127 | 29.44° C | 77% | 1009.9 hPa | 0 mm | - | - | - |
| 1777899931 | 28.33° C | 82% | 1009.9 hPa | 0 mm | - | - | - |
| 1777899329 | 28.33° C | 82% | 1009.6 hPa | 0 mm | - | - | - |
| 1777898727 | 28.33° C | 84% | 1009.4 hPa | 0 mm | - | - | - |
| 1777895735 | 25.56° C | 93% | 1009.4 hPa | 0 mm | - | - | - |
| 1777892121 | 25° C | 95% | 1008.5 hPa | 0 mm | - | - | - |
| 1777889129 | 25° C | 94% | 1008.3 hPa | 0 mm | - | - | - |
| 1777887925 | 25° C | 94% | 1008 hPa | 0 mm | - | - | - |
| 1777887322 | 25° C | 94% | 1008.1 hPa | 0 mm | - | - | - |
| 1777883728 | 25° C | 94% | 1008.1 hPa | 0 mm | - | - | - |
| 1777880736 | 25° C | 94% | 1008.6 hPa | 0 mm | - | - | - |
| 1777880134 | 25° C | 94% | 1008.7 hPa | 0 mm | - | - | - |
| 1777878326 | 25° C | 93% | 1009.3 hPa | 0 mm | - | - | - |
| 1777877765 | 25° C | 93% | 1009.3 hPa | 0 mm | - | - | - |
| 1777874131 | 25° C | 95% | 1009.5 hPa | 0 mm | - | - | - |
| 1777870516 | 25° C | 94% | 1010 hPa | 0 mm | - | - | - |
| 1777866942 | 25° C | 95% | 1010.2 hPa | 0 mm | - | - | - |
| 1777864522 | 25.56° C | 95% | 1010.2 hPa | 0 mm | - | - | - |
| 1777862133 | 25.56° C | 94% | 1010 hPa | 0 mm | - | - | - |
| 1777860948 | 25.56° C | 93% | 1009.7 hPa | 0 mm | - | - | - |
| 1777860346 | 26.11° C | 92% | 1009.7 hPa | 0 mm | - | - | - |
| 1777854321 | 26.11° C | 92% | 1009.4 hPa | 0 mm | - | - | - |
| 1777851330 | 26.67° C | 91% | 1008.7 hPa | 0 mm | - | - | - |
| 1777850125 | 26.67° C | 91% | 1008.6 hPa | 0 mm | - | - | - |
* Rain latest hour (hover to see other rain measurements)
** Current wind speed in m/s (hover to see current wind gust speed)